Time;durP1;ratioP1;P1;durP2;ratioP2;P2;SDS_P1;SDS_P2;PMS_P1;PMS_P2;Temp;Humidity;BMP_temperature;BMP_pressure;BME280_temperature;BME280_humidity;BME280_pressure;Samples;Min_cycle;Max_cycle;Signal;HPM_P1;HPM_P2
2023/01/02 00:01:15;;;;;;;56.03;38.85;;;12.80;95.60;;;;;;6370886;22;19999;-86
2023/01/02 00:03:41;;;;;;;53.58;37.63;;;12.80;95.50;;;;;;6370155;22;20001;-86
2023/01/02 00:06:07;;;;;;;58.05;38.45;;;12.70;95.50;;;;;;6370834;22;19995;-86
2023/01/02 00:08:33;;;;;;;56.42;38.40;;;12.70;95.50;;;;;;6370587;22;19998;-86
2023/01/02 00:10:58;;;;;;;58.67;38.00;;;12.70;95.60;;;;;;6371367;22;20286;-86
2023/01/02 00:13:24;;;;;;;57.55;39.60;;;12.70;95.60;;;;;;6370488;22;20002;-87
2023/01/02 00:15:50;;;;;;;56.50;39.05;;;12.70;95.60;;;;;;6370771;22;20006;-86
2023/01/02 00:18:15;;;;;;;54.80;37.90;;;12.70;95.50;;;;;;6369760;22;20293;-85
2023/01/02 00:20:41;;;;;;;53.20;36.88;;;12.70;95.60;;;;;;6370514;22;19994;-86
2023/01/02 00:23:07;;;;;;;52.13;35.78;;;12.80;95.60;;;;;;6370432;22;20439;-86
2023/01/02 00:25:33;;;;;;;51.65;35.95;;;12.80;95.60;;;;;;6370895;22;20002;-87
2023/01/02 00:28:00;;;;;;;49.45;35.03;;;12.70;95.50;;;;;;6370972;22;19998;-87
2023/01/02 00:30:26;;;;;;;54.55;35.53;;;12.70;95.60;;;;;;6370066;22;20068;-87
2023/01/02 00:32:51;;;;;;;49.90;35.03;;;12.70;95.60;;;;;;6371006;22;20088;-87
2023/01/02 00:35:17;;;;;;;53.95;35.85;;;12.70;95.50;;;;;;6370813;22;20005;-87
2023/01/02 00:37:43;;;;;;;54.60;37.72;;;12.70;95.60;;;;;;6371163;22;19999;-88
2023/01/02 00:40:12;;;;;;;53.00;35.97;;;12.70;95.60;;;;;;6370178;22;20058;-88
2023/01/02 00:42:39;;;;;;;52.65;36.78;;;12.70;95.60;;;;;;6370754;22;19995;-88
2023/01/02 00:45:06;;;;;;;53.00;37.47;;;12.70;95.60;;;;;;6370391;22;20073;-86
2023/01/02 00:47:32;;;;;;;51.72;36.97;;;12.70;95.60;;;;;;6370877;22;19999;-85
2023/01/02 00:49:58;;;;;;;55.45;38.25;;;12.70;95.60;;;;;;6342458;22;20007;-85
2023/01/02 00:52:24;;;;;;;53.58;37.78;;;12.70;95.60;;;;;;6370416;22;20044;-85
2023/01/02 00:54:49;;;;;;;51.75;37.53;;;12.70;95.50;;;;;;6369552;22;20392;-85
2023/01/02 00:57:15;;;;;;;56.28;37.90;;;12.70;95.60;;;;;;6370615;22;20004;-85
2023/01/02 00:59:40;;;;;;;54.90;38.08;;;12.70;95.60;;;;;;6342597;22;19998;-85
2023/01/02 01:02:06;;;;;;;49.60;36.05;;;12.70;95.50;;;;;;6370630;22;20001;-85
2023/01/02 01:04:33;;;;;;;53.70;38.55;;;12.70;95.50;;;;;;6342572;22;20050;-84
2023/01/02 01:06:59;;;;;;;50.78;36.03;;;12.70;95.50;;;;;;6341960;22;20332;-86
2023/01/02 01:09:25;;;;;;;51.55;36.17;;;12.70;95.50;;;;;;6370776;22;19998;-87
2023/01/02 01:11:50;;;;;;;55.40;38.15;;;12.70;95.50;;;;;;6370016;22;20008;-86
2023/01/02 01:14:16;;;;;;;57.83;39.47;;;12.70;95.50;;;;;;6370462;22;20036;-87
2023/01/02 01:16:42;;;;;;;52.47;36.85;;;12.70;95.50;;;;;;6369851;22;20005;-87
2023/01/02 01:19:08;;;;;;;57.55;39.25;;;12.60;95.60;;;;;;6370574;22;19998;-87
2023/01/02 01:21:34;;;;;;;57.60;39.75;;;12.60;95.60;;;;;;6370436;22;20082;-86
2023/01/02 01:24:00;;;;;;;55.90;39.40;;;12.70;95.60;;;;;;6370484;22;20010;-87
2023/01/02 01:26:26;;;;;;;56.92;41.03;;;12.70;95.60;;;;;;6342620;22;20014;-87
2023/01/02 01:28:55;;;;;;;57.75;41.17;;;12.70;95.60;;;;;;6369572;22;20029;-86
2023/01/02 01:31:22;;;;;;;57.20;41.60;;;12.70;95.40;;;;;;6370981;22;20002;-84
2023/01/02 01:33:48;;;;;;;58.13;40.80;;;12.70;95.50;;;;;;6370543;22;20002;-84
2023/01/02 01:36:17;;;;;;;57.88;41.30;;;12.70;95.50;;;;;;6370224;22;20059;-85
2023/01/02 01:38:43;;;;;;;59.15;44.30;;;12.70;95.50;;;;;;6370336;22;20003;-84
2023/01/02 01:41:13;;;;;;;60.63;42.95;;;12.70;95.40;;;;;;6370271;22;20450;-84
2023/01/02 01:43:45;;;;;;;58.97;41.92;;;12.70;95.40;;;;;;6369823;22;19998;-84
2023/01/02 01:46:29;;;;;;;58.17;42.42;;;12.70;95.30;;;;;;6370704;22;20471;-82
2023/01/02 01:49:33;;;;;;;54.58;40.53;;;12.70;95.30;;;;;;6370665;22;20008;-82
2023/01/02 01:52:08;;;;;;;58.95;41.65;;;12.70;95.30;;;;;;6369463;22;20043;-82
2023/01/02 01:54:44;;;;;;;58.80;42.88;;;12.70;95.30;;;;;;6342689;22;20006;-83
2023/01/02 01:57:25;;;;;;;59.60;43.67;;;12.60;95.20;;;;;;6370345;22;20003;-83
2023/01/02 01:59:51;;;;;;;60.20;46.28;;;12.60;95.20;;;;;;6342709;22;20081;-83
2023/01/02 02:02:18;;;;;;;60.17;44.97;;;12.60;95.30;;;;;;6370248;22;20396;-82
2023/01/02 02:04:44;;;;;;;66.63;47.55;;;12.50;95.30;;;;;;6370516;22;20075;-83
2023/01/02 02:07:11;;;;;;;62.25;46.35;;;12.60;95.30;;;;;;6370807;22;20075;-82
2023/01/02 02:09:43;;;;;;;64.03;47.03;;;12.60;95.30;;;;;;6370556;22;20025;-82
2023/01/02 02:12:09;;;;;;;66.72;47.88;;;12.60;95.20;;;;;;6370202;22;20472;-83
2023/01/02 02:14:35;;;;;;;64.55;48.60;;;12.60;95.20;;;;;;6342245;22;20014;-82
2023/01/02 02:17:10;;;;;;;62.92;46.78;;;12.60;95.10;;;;;;6342779;22;19998;-82
2023/01/02 02:20:08;;;;;;;75.72;55.40;;;12.60;95.00;;;;;;6342640;22;20002;-84
2023/01/02 02:23:10;;;;;;;62.90;46.88;;;12.60;95.00;;;;;;6369422;22;20010;-84
2023/01/02 02:26:04;;;;;;;69.63;51.08;;;12.50;95.00;;;;;;6369868;22;20059;-83
2023/01/02 02:28:57;;;;;;;61.50;45.47;;;12.50;95.00;;;;;;6369695;22;20021;-83
2023/01/02 02:31:22;;;;;;;78.28;53.25;;;12.50;95.10;;;;;;6341597;22;20374;-84
2023/01/02 02:34:09;;;;;;;63.90;47.65;;;12.40;95.20;;;;;;6370315;22;20002;-84
2023/01/02 02:37:07;;;;;;;63.22;47.50;;;12.40;95.20;;;;;;6370297;22;20059;-84
2023/01/02 02:39:51;;;;;;;63.50;47.63;;;12.40;95.30;;;;;;6370244;22;20001;-84
2023/01/02 02:42:20;;;;;;;64.28;48.95;;;12.40;95.30;;;;;;6369995;22;19998;-85
2023/01/02 02:45:24;;;;;;;65.40;47.13;;;12.40;95.30;;;;;;6369532;22;20003;-84
2023/01/02 02:48:15;;;;;;;59.22;45.45;;;12.40;95.30;;;;;;6283913;22;20007;-87
2023/01/02 02:51:04;;;;;;;69.10;50.88;;;12.40;95.20;;;;;;6369673;22;20006;-81
2023/01/02 02:53:42;;;;;;;62.47;45.83;;;12.40;95.20;;;;;;6369977;22;19998;-85
2023/01/02 02:56:10;;;;;;;66.72;47.38;;;12.40;95.20;;;;;;6369840;22;19998;-82
2023/01/02 02:58:39;;;;;;;63.65;48.17;;;12.40;95.30;;;;;;6370868;22;20418;-81
2023/01/02 03:01:11;;;;;;;62.92;47.60;;;12.40;95.30;;;;;;6371564;22;20001;-82
2023/01/02 03:03:37;;;;;;;64.80;46.85;;;12.40;95.30;;;;;;6371989;22;20018;-84
2023/01/02 03:06:18;;;;;;;68.22;46.72;;;12.40;95.20;;;;;;6371925;22;19999;-83
2023/01/02 03:09:25;;;;;;;61.28;44.95;;;12.50;95.20;;;;;;6342531;22;20006;-84
2023/01/02 03:12:25;;;;;;;61.85;44.92;;;12.50;95.20;;;;;;6214076;23;20036;-85
2023/01/02 03:15:14;;;;;;;62.03;44.20;;;12.50;95.10;;;;;;6371583;22;19998;-84
2023/01/02 03:18:19;;;;;;;59.00;42.05;;;12.50;95.10;;;;;;6344302;22;20369;-85
2023/01/02 03:20:53;;;;;;;57.53;41.67;;;12.50;95.00;;;;;;6372733;22;19994;-85
2023/01/02 03:23:22;;;;;;;60.90;43.83;;;12.50;95.00;;;;;;6370637;22;20085;-87
2023/01/02 03:25:48;;;;;;;63.40;45.25;;;12.60;95.00;;;;;;6370982;22;20008;-87
2023/01/02 03:28:17;;;;;;;61.80;42.38;;;12.50;94.90;;;;;;6371133;22;20373;-87
2023/01/02 03:30:46;;;;;;;62.95;44.45;;;12.50;95.10;;;;;;6378200;22;19999;-87
2023/01/02 03:33:24;;;;;;;62.63;43.25;;;12.50;94.90;;;;;;6393387;22;20029;-87
2023/01/02 03:35:53;;;;;;;62.05;43.97;;;12.50;94.80;;;;;;6393876;22;19998;-88
2023/01/02 03:38:24;;;;;;;58.05;42.10;;;12.50;94.90;;;;;;6344893;22;20002;-86
2023/01/02 03:41:05;;;;;;;63.55;43.25;;;12.50;95.00;;;;;;6372142;22;20058;-85
2023/01/02 03:43:34;;;;;;;61.08;42.92;;;12.50;95.00;;;;;;6371837;22;20027;-88
2023/01/02 03:46:25;;;;;;;59.53;42.25;;;12.50;94.90;;;;;;6343404;22;20014;-87
2023/01/02 03:48:55;;;;;;;59.75;40.97;;;12.50;94.90;;;;;;6371136;22;20066;-87
2023/01/02 03:51:21;;;;;;;59.42;41.60;;;12.50;94.90;;;;;;6371855;22;20002;-86
2023/01/02 03:53:51;;;;;;;62.20;42.15;;;12.50;95.00;;;;;;6343402;22;20422;-87
2023/01/02 03:57:00;;;;;;;61.97;41.88;;;12.50;95.00;;;;;;6371287;22;20313;-86
2023/01/02 03:59:44;;;;;;;63.95;43.30;;;12.50;95.00;;;;;;6371505;22;19999;-86
2023/01/02 04:02:25;;;;;;;54.05;39.05;;;12.40;95.00;;;;;;6371743;22;19995;-86
2023/01/02 04:04:53;;;;;;;57.17;38.90;;;12.40;95.00;;;;;;6371688;22;20396;-85
2023/01/02 04:07:58;;;;;;;56.88;38.30;;;12.40;95.10;;;;;;6371235;22;20003;-85
2023/01/02 04:10:26;;;;;;;56.55;37.60;;;12.40;95.10;;;;;;6232983;22;20426;-85
2023/01/02 04:12:55;;;;;;;62.03;39.08;;;12.30;95.10;;;;;;6375132;22;20009;-85
2023/01/02 04:15:27;;;;;;;59.70;36.60;;;12.30;95.10;;;;;;6374301;22;20355;-86
2023/01/02 04:18:03;;;;;;;51.67;35.60;;;12.30;95.10;;;;;;6372091;22;19998;-86
2023/01/02 04:20:33;;;;;;;57.80;36.15;;;12.30;95.20;;;;;;6372526;22;19994;-85
2023/01/02 04:23:09;;;;;;;56.47;36.95;;;12.30;95.20;;;;;;6343733;22;20436;-84
2023/01/02 04:25:44;;;;;;;57.72;35.83;;;12.30;95.20;;;;;;6372841;22;20005;-85
2023/01/02 04:28:29;;;;;;;53.25;35.65;;;12.30;95.20;;;;;;6372070;22;20006;-83
2023/01/02 04:31:19;;;;;;;63.20;38.53;;;12.30;95.10;;;;;;6344582;22;20033;-83
2023/01/02 04:33:57;;;;;;;54.80;33.63;;;12.30;95.20;;;;;;6293160;22;20002;-83
2023/01/02 04:36:24;;;;;;;68.90;41.97;;;12.30;95.30;;;;;;6376315;22;19995;-83
2023/01/02 04:38:50;;;;;;;55.88;34.33;;;12.20;95.20;;;;;;6347318;22;20018;-84
2023/01/02 04:41:28;;;;;;;51.22;33.33;;;12.30;95.30;;;;;;6373667;22;20309;-84
2023/01/02 04:43:55;;;;;;;56.80;34.70;;;12.20;95.30;;;;;;6372398;22;20398;-83
2023/01/02 04:46:21;;;;;;;59.08;34.97;;;12.20;95.30;;;;;;6371690;22;19998;-83
2023/01/02 04:48:47;;;;;;;59.65;35.88;;;12.20;95.30;;;;;;6371833;22;19994;-84
2023/01/02 04:51:13;;;;;;;54.67;32.80;;;12.20;95.40;;;;;;6371302;22;20419;-84
2023/01/02 04:53:38;;;;;;;58.22;34.88;;;12.20;95.40;;;;;;6372210;22;20077;-86
2023/01/02 04:56:05;;;;;;;53.40;33.90;;;12.30;95.40;;;;;;6373208;22;20313;-85
2023/01/02 04:58:30;;;;;;;54.40;34.55;;;12.30;95.40;;;;;;6372680;22;20066;-85
2023/01/02 05:00:56;;;;;;;55.88;34.42;;;12.30;95.40;;;;;;6374348;22;20428;-84
2023/01/02 05:03:22;;;;;;;52.20;33.75;;;12.30;95.40;;;;;;6371254;22;19999;-85
2023/01/02 05:05:47;;;;;;;53.97;33.70;;;12.30;95.30;;;;;;6371407;22;19998;-84
2023/01/02 05:08:13;;;;;;;52.58;33.42;;;12.30;95.30;;;;;;6370699;22;20010;-84
2023/01/02 05:10:39;;;;;;;52.20;33.50;;;12.40;95.30;;;;;;6342737;22;20462;-85
2023/01/02 05:13:04;;;;;;;57.78;35.08;;;12.30;95.40;;;;;;6342354;22;20002;-85
2023/01/02 05:15:30;;;;;;;53.17;32.13;;;12.30;95.40;;;;;;6370633;22;20416;-85
2023/01/02 05:17:56;;;;;;;54.97;33.20;;;12.30;95.40;;;;;;6369631;22;20020;-85
2023/01/02 05:20:22;;;;;;;59.25;35.05;;;12.30;95.50;;;;;;6370400;22;20070;-86
2023/01/02 05:25:34;;;;;;;61.65;36.10;;;12.30;95.50;;;;;;6370774;22;20013;-86
2023/01/02 05:28:01;;;;;;;61.42;35.78;;;12.30;95.60;;;;;;6370503;22;20495;-85
2023/01/02 05:30:27;;;;;;;58.33;33.53;;;12.20;95.70;;;;;;6370986;22;19998;-85
2023/01/02 05:32:53;;;;;;;59.42;34.13;;;12.20;95.80;;;;;;6370447;22;20013;-84
2023/01/02 05:35:19;;;;;;;67.70;35.45;;;12.20;95.60;;;;;;6370666;22;20002;-85
2023/01/02 05:37:45;;;;;;;61.08;35.38;;;12.20;95.80;;;;;;6370816;22;20003;-85
2023/01/02 05:40:10;;;;;;;61.10;34.58;;;12.20;95.80;;;;;;6370294;22;19994;-85
2023/01/02 05:42:36;;;;;;;60.92;35.33;;;12.30;95.80;;;;;;6342496;22;20081;-85
2023/01/02 05:45:03;;;;;;;70.60;37.67;;;12.30;95.80;;;;;;6370549;22;20081;-84
2023/01/02 05:47:28;;;;;;;74.68;38.60;;;12.30;95.80;;;;;;6343332;22;20003;-85
2023/01/02 05:49:54;;;;;;;65.55;35.85;;;12.30;95.80;;;;;;6342921;22;20324;-87
2023/01/02 05:52:20;;;;;;;70.70;38.22;;;12.30;95.80;;;;;;6371550;22;20055;-86
2023/01/02 05:54:45;;;;;;;75.53;38.80;;;12.30;95.80;;;;;;6343671;22;20034;-87
2023/01/02 05:57:11;;;;;;;79.35;39.13;;;12.30;95.80;;;;;;6370723;22;19998;-87
2023/01/02 05:59:36;;;;;;;78.55;40.20;;;12.20;96.00;;;;;;6370666;22;20077;-88
2023/01/02 06:02:02;;;;;;;73.78;36.95;;;12.10;96.30;;;;;;6376376;22;20002;-85
2023/01/02 06:04:28;;;;;;;78.45;38.72;;;12.10;96.20;;;;;;6370499;22;20003;-85
2023/01/02 06:06:53;;;;;;;81.93;40.53;;;12.10;96.20;;;;;;6370623;22;20009;-85
2023/01/02 06:09:19;;;;;;;75.35;39.00;;;12.20;96.20;;;;;;6370834;22;20328;-85
2023/01/02 06:11:45;;;;;;;73.10;37.58;;;12.10;96.10;;;;;;6370790;22;19998;-86
2023/01/02 06:14:10;;;;;;;80.18;38.45;;;12.10;96.10;;;;;;6370666;22;20083;-86
2023/01/02 06:16:37;;;;;;;74.00;38.13;;;12.20;96.20;;;;;;6343952;22;20358;-86
2023/01/02 06:19:03;;;;;;;78.10;38.05;;;12.10;96.10;;;;;;6370783;22;19998;-87
2023/01/02 06:21:29;;;;;;;87.30;42.15;;;12.20;96.20;;;;;;6370852;22;20002;-87
2023/01/02 06:23:57;;;;;;;73.35;39.05;;;12.10;96.30;;;;;;6370974;22;20006;-86
2023/01/02 06:26:25;;;;;;;81.70;40.30;;;12.10;96.30;;;;;;6371199;22;20042;-87
2023/01/02 06:28:53;;;;;;;80.05;40.25;;;12.10;96.40;;;;;;6370173;22;20006;-85
2023/01/02 06:31:21;;;;;;;96.85;45.50;;;12.10;96.40;;;;;;6372733;22;19994;-85
2023/01/02 06:33:51;;;;;;;78.57;39.65;;;12.00;96.70;;;;;;6372290;22;20025;-85
2023/01/02 06:36:18;;;;;;;88.45;40.92;;;12.00;96.70;;;;;;6372076;22;20002;-85
2023/01/02 06:38:46;;;;;;;79.82;37.83;;;11.90;96.70;;;;;;6372792;22;19998;-83
2023/01/02 06:41:13;;;;;;;75.63;38.50;;;12.00;96.70;;;;;;6377144;22;19998;-84
2023/01/02 06:43:44;;;;;;;77.95;39.45;;;12.00;96.80;;;;;;6355983;22;20362;-84
2023/01/02 06:46:12;;;;;;;78.63;38.47;;;12.00;97.00;;;;;;6385754;22;20009;-84
2023/01/02 06:48:38;;;;;;;76.45;37.13;;;12.00;96.90;;;;;;6390188;22;19995;-86
2023/01/02 06:51:08;;;;;;;93.20;44.20;;;12.00;96.90;;;;;;6388304;22;19995;-85
2023/01/02 06:53:36;;;;;;;80.68;40.25;;;12.00;96.90;;;;;;6387007;22;20005;-85
2023/01/02 06:56:01;;;;;;;79.93;40.25;;;12.00;96.90;;;;;;6359351;22;20431;-84
2023/01/02 06:58:31;;;;;;;81.43;39.55;;;12.00;96.90;;;;;;6390067;22;20020;-87
2023/01/02 07:01:02;;;;;;;74.30;37.78;;;12.00;96.90;;;;;;6390225;22;19995;-86
2023/01/02 07:03:28;;;;;;;81.72;40.60;;;12.10;96.90;;;;;;6389422;22;19998;-86
2023/01/02 07:05:58;;;;;;;74.35;38.63;;;12.10;96.90;;;;;;6394025;22;20040;-88
2023/01/02 07:08:23;;;;;;;72.22;37.20;;;12.10;96.90;;;;;;6360150;22;20006;-85
2023/01/02 07:10:49;;;;;;;74.47;37.85;;;12.10;96.90;;;;;;6381019;22;20028;-85
2023/01/02 07:13:15;;;;;;;70.05;36.70;;;12.10;96.90;;;;;;6381548;22;20010;-86
2023/01/02 07:15:40;;;;;;;70.25;36.10;;;12.10;96.90;;;;;;6382284;22;20002;-82
2023/01/02 07:18:06;;;;;;;81.82;41.38;;;12.10;97.00;;;;;;6373140;22;20002;-83
2023/01/02 07:20:32;;;;;;;71.95;36.20;;;12.10;97.00;;;;;;6373109;22;20269;-83
2023/01/02 07:22:57;;;;;;;71.38;36.30;;;12.10;97.00;;;;;;6374083;22;20006;-80
2023/01/02 07:25:23;;;;;;;79.82;39.13;;;12.20;97.10;;;;;;6372728;22;20016;-80
2023/01/02 07:27:49;;;;;;;75.93;36.95;;;12.20;97.10;;;;;;6372209;22;20009;-80
2023/01/02 07:30:15;;;;;;;69.30;36.08;;;12.20;97.10;;;;;;6371591;22;20002;-80
2023/01/02 07:32:42;;;;;;;80.60;38.05;;;12.20;97.00;;;;;;6371595;22;20462;-81
2023/01/02 07:35:09;;;;;;;69.85;35.10;;;12.20;97.00;;;;;;6371333;22;20005;-81
2023/01/02 07:37:34;;;;;;;76.15;37.08;;;12.20;96.90;;;;;;6343020;22;20034;-80
2023/01/02 07:40:00;;;;;;;78.10;36.90;;;12.30;96.90;;;;;;6371970;22;20393;-79
2023/01/02 07:42:26;;;;;;;77.68;37.78;;;12.30;96.90;;;;;;6370701;22;20073;-80
2023/01/02 07:44:52;;;;;;;72.82;36.83;;;12.30;96.90;;;;;;6370884;22;20007;-80
2023/01/02 07:47:17;;;;;;;72.63;37.00;;;12.30;96.90;;;;;;6370937;22;20010;-80
2023/01/02 07:49:43;;;;;;;75.43;37.42;;;12.30;96.90;;;;;;6370322;22;20022;-80
2023/01/02 07:52:10;;;;;;;76.25;36.60;;;12.30;96.90;;;;;;6371544;22;20010;-80
2023/01/02 07:54:37;;;;;;;81.05;39.17;;;12.30;96.80;;;;;;6342391;22;20010;-79
2023/01/02 07:57:04;;;;;;;76.38;37.85;;;12.30;96.60;;;;;;6342617;22;20556;-79
2023/01/02 07:59:29;;;;;;;75.57;36.33;;;12.30;96.80;;;;;;6370521;22;19994;-81
2023/01/02 08:01:55;;;;;;;77.00;36.78;;;12.30;96.90;;;;;;6371094;22;20002;-84
2023/01/02 08:04:21;;;;;;;81.43;39.35;;;12.30;96.90;;;;;;6370730;22;20269;-82
2023/01/02 08:06:46;;;;;;;82.72;39.10;;;12.30;96.80;;;;;;6371118;22;20106;-81
2023/01/02 08:09:12;;;;;;;75.28;36.65;;;12.30;96.80;;;;;;6370058;22;20258;-79
2023/01/02 08:11:38;;;;;;;74.45;36.15;;;12.20;96.90;;;;;;6371544;22;20002;-83
2023/01/02 08:14:04;;;;;;;76.95;36.92;;;12.20;97.00;;;;;;6371604;22;20078;-81
2023/01/02 08:16:30;;;;;;;74.03;36.40;;;12.30;97.00;;;;;;6371649;22;20002;-88
2023/01/02 08:18:55;;;;;;;73.03;37.05;;;12.30;97.00;;;;;;6370976;22;20002;-83
2023/01/02 08:21:25;;;;;;;66.95;34.35;;;12.20;97.00;;;;;;6372952;22;20010;-80
2023/01/02 08:23:51;;;;;;;65.50;33.15;;;12.30;97.10;;;;;;6375012;22;20413;-81
2023/01/02 08:26:19;;;;;;;64.53;33.00;;;12.30;96.90;;;;;;6372229;22;20451;-79
2023/01/02 08:28:45;;;;;;;61.10;30.20;;;12.40;97.10;;;;;;6370134;22;20073;-84
2023/01/02 08:31:13;;;;;;;63.20;30.58;;;12.50;97.10;;;;;;6371057;22;20406;-85
2023/01/02 08:33:39;;;;;;;76.95;32.85;;;12.50;96.90;;;;;;6371589;22;20438;-86
2023/01/02 08:36:05;;;;;;;66.80;32.28;;;12.50;96.90;;;;;;6372004;22;20409;-85
2023/01/02 08:38:31;;;;;;;58.22;29.83;;;12.50;96.70;;;;;;6371312;22;20387;-85
2023/01/02 08:40:58;;;;;;;60.67;29.38;;;12.50;96.80;;;;;;6371590;22;19994;-86
2023/01/02 08:43:24;;;;;;;66.97;30.70;;;12.50;96.70;;;;;;6371365;22;19998;-85
2023/01/02 08:45:49;;;;;;;64.95;31.05;;;12.60;96.80;;;;;;6371717;22;20006;-86
2023/01/02 08:48:15;;;;;;;67.57;31.33;;;12.60;96.70;;;;;;6371540;22;20002;-85
2023/01/02 08:50:41;;;;;;;61.53;30.63;;;12.60;96.60;;;;;;6371379;22;20056;-84
2023/01/02 08:53:07;;;;;;;70.28;31.25;;;12.60;96.60;;;;;;6371101;22;20022;-86
2023/01/02 08:55:33;;;;;;;65.70;31.20;;;12.60;96.50;;;;;;6370379;22;20009;-84
2023/01/02 08:57:58;;;;;;;62.25;30.48;;;12.60;96.50;;;;;;6371372;22;20021;-79
2023/01/02 09:00:24;;;;;;;63.85;30.92;;;12.60;96.50;;;;;;6371231;22;20464;-80
2023/01/02 09:02:50;;;;;;;56.03;27.40;;;12.70;96.50;;;;;;6370110;22;19995;-79
2023/01/02 09:05:15;;;;;;;61.75;30.30;;;12.70;96.40;;;;;;6370697;22;20002;-80
2023/01/02 09:07:44;;;;;;;65.13;30.80;;;12.70;96.40;;;;;;6369918;22;20051;-80
2023/01/02 09:10:12;;;;;;;65.00;31.65;;;12.80;96.40;;;;;;6371001;22;20361;-80
2023/01/02 09:12:38;;;;;;;55.00;27.30;;;12.80;96.20;;;;;;6370777;22;20400;-80
2023/01/02 09:15:04;;;;;;;62.22;29.00;;;12.70;96.10;;;;;;6370858;22;20052;-81
2023/01/02 09:17:30;;;;;;;68.13;30.85;;;12.60;96.10;;;;;;6342680;22;20008;-79
2023/01/02 09:19:57;;;;;;;59.63;29.38;;;12.60;96.20;;;;;;6370311;22;20021;-80
2023/01/02 09:22:22;;;;;;;57.42;28.05;;;12.60;96.40;;;;;;6342456;22;20013;-79
2023/01/02 09:24:48;;;;;;;56.70;28.02;;;12.60;96.40;;;;;;6370705;22;20317;-79
2023/01/02 09:27:16;;;;;;;61.40;29.70;;;12.70;96.30;;;;;;6371033;22;20016;-78
2023/01/02 09:29:42;;;;;;;56.42;27.70;;;12.70;96.30;;;;;;6370261;22;20022;-79
2023/01/02 09:32:07;;;;;;;66.03;30.48;;;12.70;96.20;;;;;;6370758;22;19998;-79
2023/01/02 09:34:34;;;;;;;56.75;27.13;;;12.70;96.20;;;;;;6342739;22;20486;-78
2023/01/02 09:37:00;;;;;;;56.83;28.85;;;12.60;96.30;;;;;;6340875;22;20002;-78
2023/01/02 09:39:27;;;;;;;63.42;29.17;;;12.60;96.30;;;;;;6370045;22;20290;-79
2023/01/02 09:41:57;;;;;;;55.08;26.52;;;12.60;96.20;;;;;;6365488;22;20001;-78
2023/01/02 09:44:43;;;;;;;58.05;27.85;;;12.70;96.40;;;;;;6370256;22;20325;-79
2023/01/02 09:47:28;;;;;;;60.45;29.80;;;12.70;96.30;;;;;;6369108;22;20025;-76
2023/01/02 09:50:00;;;;;;;61.15;29.73;;;12.70;96.30;;;;;;6370363;22;20105;-78
2023/01/02 09:52:35;;;;;;;59.55;28.30;;;12.70;96.20;;;;;;6369049;22;20003;-77
2023/01/02 09:55:12;;;;;;;62.08;29.45;;;12.70;96.10;;;;;;6369042;22;20323;-78
2023/01/02 09:57:44;;;;;;;68.05;30.00;;;12.70;96.10;;;;;;6369356;22;20285;-77
2023/01/02 10:00:19;;;;;;;60.50;28.70;;;12.70;96.20;;;;;;6368745;22;20005;-78
2023/01/02 10:03:29;;;;;;;63.67;30.42;;;12.70;96.20;;;;;;6367524;22;20002;-83
2023/01/02 10:05:58;;;;;;;63.03;29.77;;;12.60;96.20;;;;;;6281256;22;20328;-78
2023/01/02 10:08:39;;;;;;;57.15;27.50;;;12.60;96.20;;;;;;6369019;22;20002;-84
2023/01/02 10:11:19;;;;;;;63.20;28.55;;;12.40;96.20;;;;;;6369595;22;19994;-78
2023/01/02 10:14:03;;;;;;;59.50;28.87;;;12.50;96.50;;;;;;6369642;22;19999;-78
2023/01/02 10:16:41;;;;;;;75.43;34.28;;;12.50;96.50;;;;;;6368039;22;20225;-77
2023/01/02 10:19:22;;;;;;;63.45;29.73;;;12.50;96.40;;;;;;6367215;22;20013;-78
2023/01/02 10:21:51;;;;;;;64.60;30.58;;;12.50;96.50;;;;;;6341310;22;20003;-78
2023/01/02 10:24:36;;;;;;;58.72;29.88;;;12.50;96.50;;;;;;6368978;22;20086;-77
2023/01/02 10:27:04;;;;;;;59.13;28.20;;;12.50;96.50;;;;;;6369174;22;20022;-77
2023/01/02 10:29:41;;;;;;;63.30;29.98;;;12.50;96.50;;;;;;6368768;22;19998;-78
2023/01/02 10:32:19;;;;;;;61.20;29.85;;;12.50;96.60;;;;;;6367351;22;20068;-78
2023/01/02 10:35:06;;;;;;;61.78;30.38;;;12.50;96.60;;;;;;6367896;22;20348;-78
2023/01/02 10:37:33;;;;;;;58.97;28.70;;;12.60;96.60;;;;;;6368084;22;20001;-78
2023/01/02 10:39:59;;;;;;;68.07;31.83;;;12.60;96.60;;;;;;6367697;22;20002;-78
2023/01/02 10:42:25;;;;;;;69.68;30.35;;;12.60;96.60;;;;;;6367820;22;20050;-78
2023/01/02 10:44:51;;;;;;;57.67;29.05;;;12.70;96.60;;;;;;6367893;22;20416;-78
2023/01/02 10:47:37;;;;;;;59.92;31.13;;;12.70;96.50;;;;;;6368243;22;20009;-77
2023/01/02 10:50:06;;;;;;;61.22;32.00;;;12.70;96.30;;;;;;6366603;22;20051;-79
2023/01/02 10:52:52;;;;;;;53.15;28.33;;;12.70;96.40;;;;;;6364814;22;20369;-78
2023/01/02 10:55:34;;;;;;;63.45;30.60;;;12.80;96.40;;;;;;6367277;22;20006;-79
2023/01/02 10:58:24;;;;;;;52.30;28.42;;;12.80;96.30;;;;;;6367729;22;20328;-79
2023/01/02 11:01:06;;;;;;;52.28;28.17;;;12.80;96.10;;;;;;6366763;22;20002;-78
2023/01/02 11:03:33;;;;;;;60.38;30.73;;;12.80;96.10;;;;;;6368237;22;20043;-78
2023/01/02 11:06:00;;;;;;;57.33;29.67;;;12.80;96.00;;;;;;6368043;22;20075;-79
2023/01/02 11:08:37;;;;;;;59.00;31.70;;;12.80;96.20;;;;;;6368191;22;20005;-79
2023/01/02 11:11:23;;;;;;;54.53;29.35;;;12.80;96.10;;;;;;6367378;22;19998;-79
2023/01/02 11:13:51;;;;;;;55.38;29.42;;;12.80;96.10;;;;;;6368350;22;20003;-79
2023/01/02 11:16:17;;;;;;;52.38;28.35;;;12.80;96.10;;;;;;6340308;22;20329;-79
2023/01/02 11:18:57;;;;;;;52.60;29.10;;;12.80;96.10;;;;;;6370249;22;19994;-79
2023/01/02 11:21:27;;;;;;;50.10;28.75;;;12.90;96.10;;;;;;6369108;22;20002;-79
2023/01/02 11:24:18;;;;;;;55.72;31.42;;;12.90;96.00;;;;;;6367994;22;20021;-79
2023/01/02 11:26:47;;;;;;;57.58;30.83;;;12.90;95.90;;;;;;6368925;22;20077;-79
2023/01/02 11:29:25;;;;;;;53.03;28.92;;;12.90;95.80;;;;;;6368243;22;19999;-79
2023/01/02 11:31:56;;;;;;;56.00;31.05;;;12.90;95.90;;;;;;6369502;22;20002;-79
2023/01/02 11:34:26;;;;;;;57.03;29.67;;;12.90;95.90;;;;;;6369669;22;20009;-79
2023/01/02 11:37:01;;;;;;;59.30;30.40;;;12.90;95.80;;;;;;6369403;22;19998;-79
2023/01/02 11:39:32;;;;;;;58.40;30.98;;;12.90;95.90;;;;;;6369529;22;20140;-79
2023/01/02 11:45:18;;;;;;;56.28;29.27;;;12.90;95.90;;;;;;6370614;22;20071;-79
2023/01/02 11:47:54;;;;;;;52.47;30.33;;;12.90;95.90;;;;;;6361065;22;20328;-80
2023/01/02 11:50:26;;;;;;;61.30;32.28;;;12.90;95.90;;;;;;6367895;22;20002;-77
2023/01/02 11:53:11;;;;;;;59.20;32.08;;;13.00;95.90;;;;;;6366049;22;20009;-78
2023/01/02 11:56:01;;;;;;;61.10;31.65;;;13.00;95.80;;;;;;6368434;22;20435;-78
2023/01/02 11:58:29;;;;;;;62.65;32.03;;;13.10;95.80;;;;;;6368375;22;20429;-78
2023/01/02 12:01:37;;;;;;;57.63;32.33;;;13.10;95.70;;;;;;6369887;22;20432;-78
2023/01/02 12:04:03;;;;;;;55.42;30.52;;;13.10;95.60;;;;;;6281829;22;19998;-78
2023/01/02 12:06:41;;;;;;;58.25;32.35;;;13.10;95.60;;;;;;6341702;22;20017;-77
2023/01/02 12:09:30;;;;;;;58.63;31.73;;;13.10;95.50;;;;;;6369250;22;20066;-78
2023/01/02 12:12:34;;;;;;;55.60;30.40;;;13.10;95.40;;;;;;6342485;22;20434;-77
2023/01/02 12:15:05;;;;;;;54.10;30.92;;;13.10;95.60;;;;;;6230175;22;20005;-78
2023/01/02 12:17:52;;;;;;;51.40;29.85;;;13.10;95.60;;;;;;6369380;22;19998;-78
2023/01/02 12:20:40;;;;;;;54.35;30.50;;;13.10;95.60;;;;;;6369428;22;19999;-79
2023/01/02 12:23:42;;;;;;;55.38;32.17;;;13.10;95.60;;;;;;6369852;22;20010;-78
2023/01/02 12:26:20;;;;;;;55.67;30.88;;;13.10;95.60;;;;;;6370166;22;20002;-78
2023/01/02 12:28:58;;;;;;;55.00;30.23;;;13.10;95.50;;;;;;6369057;22;20006;-77
2023/01/02 12:31:46;;;;;;;59.90;31.52;;;13.10;95.50;;;;;;6370294;22;19998;-78
2023/01/02 12:34:41;;;;;;;58.17;33.22;;;13.10;95.60;;;;;;6370256;22;20006;-79
2023/01/02 12:37:15;;;;;;;54.75;30.20;;;13.10;95.50;;;;;;6369638;22;20026;-77
2023/01/02 12:40:09;;;;;;;54.85;32.10;;;13.10;95.50;;;;;;6369725;22;20005;-79
2023/01/02 12:43:00;;;;;;;59.67;32.08;;;13.10;95.50;;;;;;6363888;22;20029;-78
2023/01/02 12:45:43;;;;;;;55.42;30.17;;;13.10;95.40;;;;;;6369387;22;20006;-79
2023/01/02 12:48:33;;;;;;;58.10;31.40;;;13.20;95.40;;;;;;6367913;22;20448;-78
2023/01/02 12:51:08;;;;;;;57.65;30.95;;;13.20;95.50;;;;;;6369367;22;20033;-79
2023/01/02 12:53:42;;;;;;;58.40;31.48;;;13.20;95.50;;;;;;6368253;22;20009;-79
2023/01/02 12:56:14;;;;;;;57.63;30.45;;;13.20;95.40;;;;;;6369481;22;19999;-79
2023/01/02 12:59:03;;;;;;;59.33;32.13;;;13.20;95.40;;;;;;6368689;22;20010;-78